createdAt,value
2022-12-01T00:01:09.452Z,96528.94
2022-12-01T00:03:36.169Z,96531.19
2022-12-01T00:06:09.912Z,96528.31
2022-12-01T00:08:36.609Z,96534.94
2022-12-01T00:11:08.109Z,96522.66
2022-12-01T00:13:35.636Z,96529.78
2022-12-01T00:16:13.584Z,96524.09
2022-12-01T00:18:40.242Z,96530.09
2022-12-01T00:21:13.412Z,96524.94
2022-12-01T00:23:42.560Z,96530.31
2022-12-01T00:26:09.132Z,96528.19
2022-12-01T00:28:35.711Z,96527.22
2022-12-01T00:31:07.376Z,96524.56
2022-12-01T00:33:33.956Z,96524.00
2022-12-01T00:36:01.129Z,96527.34
2022-12-01T00:38:28.605Z,96524.06
2022-12-01T00:40:55.503Z,96521.44
2022-12-01T00:43:22.317Z,96525.66
2022-12-01T00:45:48.994Z,96520.56
2022-12-01T00:48:15.889Z,96525.38
2022-12-01T00:50:42.933Z,96525.69
2022-12-01T00:53:09.553Z,96524.56
2022-12-01T00:55:36.198Z,96526.47
2022-12-01T00:58:02.841Z,96524.44
2022-12-01T01:00:31.004Z,96529.13
2022-12-01T01:02:57.701Z,96521.19
2022-12-01T01:05:24.281Z,96521.25
2022-12-01T01:07:50.984Z,96525.75
2022-12-01T01:10:17.667Z,96524.22
2022-12-01T01:12:44.230Z,96525.63
2022-12-01T01:15:10.996Z,96527.78
2022-12-01T01:17:37.548Z,96528.28
2022-12-01T01:20:04.639Z,96525.69
2022-12-01T01:22:31.216Z,96522.75
2022-12-01T01:24:57.777Z,96525.53
2022-12-01T01:27:24.385Z,96521.66
2022-12-01T01:29:51.140Z,96515.19
2022-12-01T01:32:17.849Z,96522.16
2022-12-01T01:34:45.450Z,96509.97
2022-12-01T01:37:12.030Z,96516.41
2022-12-01T01:39:38.603Z,96518.56
2022-12-01T01:42:05.171Z,96522.03
2022-12-01T01:44:58.421Z,96522.06
2022-12-01T01:47:30.698Z,96516.28
2022-12-01T01:50:05.256Z,96529.63
2022-12-01T01:52:33.636Z,96525.13
2022-12-01T01:55:00.839Z,96526.41
2022-12-01T01:57:30.169Z,96522.91
2022-12-01T02:00:07.607Z,96519.88
2022-12-01T02:02:40.651Z,96525.94
2022-12-01T02:05:11.129Z,96510.59
2022-12-01T02:07:42.073Z,96512.28
2022-12-01T02:10:12.822Z,96518.81
2022-12-01T02:13:07.201Z,96518.81
2022-12-01T02:15:44.797Z,96500.22
2022-12-01T02:18:23.565Z,96507.13
2022-12-01T02:21:24.049Z,96505.59
2022-12-01T02:24:47.895Z,96498.72
2022-12-01T02:27:33.550Z,96501.56
2022-12-01T02:30:14.239Z,96501.94
2022-12-01T02:33:01.981Z,96501.75
2022-12-01T02:35:58.117Z,96504.69
2022-12-01T02:38:24.683Z,96505.19
2022-12-01T02:41:13.688Z,96503.91
2022-12-01T02:43:53.232Z,96502.22
2022-12-01T02:46:31.241Z,96498.69
2022-12-01T02:49:01.952Z,96492.44
2022-12-01T02:51:34.129Z,96493.31
2022-12-01T02:54:03.574Z,96496.47
2022-12-01T02:56:30.186Z,96495.97
2022-12-01T02:58:56.954Z,96491.28
2022-12-01T03:01:42.587Z,96482.38
2022-12-01T03:04:21.644Z,96482.94
2022-12-01T03:06:54.438Z,96481.34
2022-12-01T03:09:39.920Z,96478.88
2022-12-01T03:12:21.987Z,96475.09
2022-12-01T03:15:10.976Z,96481.00
2022-12-01T03:17:45.857Z,96483.38
2022-12-01T03:20:27.660Z,96481.50
2022-12-01T03:23:01.537Z,96477.59
2022-12-01T03:25:29.220Z,96482.44
2022-12-01T03:28:21.489Z,96478.53
2022-12-01T03:30:46.701Z,96472.31
2022-12-01T03:33:22.356Z,96475.75
2022-12-01T03:35:57.682Z,96472.53
2022-12-01T03:38:27.049Z,96480.00
2022-12-01T03:41:01.204Z,96483.56
2022-12-01T03:43:33.315Z,96479.88
2022-12-01T03:46:29.531Z,96476.03
2022-12-01T03:48:56.594Z,96477.41
2022-12-01T03:51:49.517Z,96479.78
2022-12-01T03:54:28.940Z,96471.41
2022-12-01T03:57:03.146Z,96476.63
2022-12-01T03:59:32.302Z,96484.66
2022-12-01T04:01:59.032Z,96483.97
2022-12-01T04:04:25.618Z,96479.59
2022-12-01T04:06:52.707Z,96482.09
2022-12-01T04:09:19.318Z,96482.69
2022-12-01T04:12:04.056Z,96471.84
2022-12-01T04:14:30.660Z,96476.16
2022-12-01T04:16:57.254Z,96475.97
2022-12-01T04:19:23.817Z,96472.75
2022-12-01T04:21:50.401Z,96475.31
2022-12-01T04:24:17.125Z,96474.28
2022-12-01T04:26:45.975Z,96475.81
2022-12-01T04:29:13.695Z,96482.00
2022-12-01T04:31:40.605Z,96473.84
2022-12-01T04:34:07.579Z,96481.81
2022-12-01T04:36:35.392Z,96480.81
2022-12-01T04:39:02.896Z,96475.81
2022-12-01T04:41:29.689Z,96476.03
2022-12-01T04:43:56.550Z,96475.88
2022-12-01T04:46:24.051Z,96483.38
2022-12-01T04:48:50.996Z,96487.25
2022-12-01T04:51:17.846Z,96484.31
2022-12-01T04:53:44.610Z,96487.06
2022-12-01T04:56:11.373Z,96481.38
2022-12-01T04:58:38.334Z,96485.94
2022-12-01T05:01:07.958Z,96485.91
2022-12-01T05:03:42.020Z,96483.97
2022-12-01T05:06:12.689Z,96491.91
2022-12-01T05:08:39.606Z,96481.13
2022-12-01T05:11:08.013Z,96484.84
2022-12-01T05:13:37.156Z,96483.72
2022-12-01T05:16:14.596Z,96484.97
2022-12-01T05:18:41.728Z,96481.69
2022-12-01T05:21:10.677Z,96485.81
2022-12-01T05:23:38.892Z,96484.72
2022-12-01T05:26:07.759Z,96488.47
2022-12-01T05:28:34.909Z,96485.44
2022-12-01T05:31:02.120Z,96485.69
2022-12-01T05:33:29.462Z,96487.28
2022-12-01T05:35:56.384Z,96489.38
2022-12-01T05:38:23.021Z,96481.13
2022-12-01T05:40:51.789Z,96481.75
2022-12-01T05:43:21.604Z,96483.97
2022-12-01T05:45:50.641Z,96482.50
2022-12-01T05:48:18.005Z,96482.50
2022-12-01T05:50:44.749Z,96491.06
2022-12-01T05:53:12.865Z,96485.09
2022-12-01T05:55:39.926Z,96486.31
2022-12-01T05:58:06.557Z,96485.88
2022-12-01T06:00:33.687Z,96488.69
2022-12-01T06:03:00.250Z,96487.06
2022-12-01T06:05:26.832Z,96488.53
2022-12-01T06:07:54.717Z,96495.63
2022-12-01T06:10:21.579Z,96496.09
2022-12-01T06:12:48.179Z,96494.00
2022-12-01T06:15:15.466Z,96491.91
2022-12-01T06:17:42.250Z,96503.16
2022-12-01T06:20:09.926Z,96495.84
2022-12-01T06:22:36.703Z,96496.53
2022-12-01T06:25:03.518Z,96507.31
2022-12-01T06:27:30.094Z,96512.03
2022-12-01T06:29:56.682Z,96507.06
2022-12-01T06:32:23.298Z,96511.00
2022-12-01T06:34:49.890Z,96514.97
2022-12-01T06:37:16.910Z,96518.50
2022-12-01T06:39:43.678Z,96523.38
2022-12-01T06:42:10.504Z,96520.66
2022-12-01T06:44:37.146Z,96519.50
2022-12-01T06:47:04.025Z,96515.88
2022-12-01T06:49:30.713Z,96523.78
2022-12-01T06:51:57.299Z,96524.50
2022-12-01T06:54:23.961Z,96526.09
2022-12-01T06:56:50.678Z,96531.41
2022-12-01T06:59:17.817Z,96534.22
2022-12-01T07:01:44.974Z,96527.41
2022-12-01T07:04:11.593Z,96541.09
2022-12-01T07:06:38.199Z,96535.94
2022-12-01T07:09:04.853Z,96535.13
2022-12-01T07:11:32.403Z,96535.41
2022-12-01T07:13:59.057Z,96535.41
2022-12-01T07:16:25.739Z,96538.78
2022-12-01T07:18:52.929Z,96543.75
2022-12-01T07:21:19.528Z,96541.16
2022-12-01T07:23:46.169Z,96541.16
2022-12-01T07:26:17.858Z,96550.16
2022-12-01T07:28:45.162Z,96543.38
2022-12-01T07:31:19.581Z,96543.69
2022-12-01T07:33:46.420Z,96546.16
2022-12-01T07:36:13.860Z,96552.59
2022-12-01T07:38:40.905Z,96563.81
2022-12-01T07:41:13.952Z,96560.69
2022-12-01T07:43:41.383Z,96554.09
2022-12-01T07:46:22.382Z,96559.72
2022-12-01T07:48:50.110Z,96563.41
2022-12-01T07:51:17.419Z,96559.16
2022-12-01T07:53:45.299Z,96562.47
2022-12-01T07:56:12.504Z,96562.88
2022-12-01T07:58:39.332Z,96564.59
2022-12-01T08:01:10.751Z,96567.00
2022-12-01T08:03:37.932Z,96562.13
2022-12-01T08:06:06.027Z,96567.06
2022-12-01T08:08:34.235Z,96570.72
2022-12-01T08:11:03.422Z,96560.50
2022-12-01T08:13:30.264Z,96568.25
2022-12-01T08:15:57.297Z,96566.75
2022-12-01T08:18:24.398Z,96568.38
2022-12-01T08:20:51.746Z,96567.81
2022-12-01T08:23:18.481Z,96558.34
2022-12-01T08:25:45.118Z,96557.66
2022-12-01T08:28:11.727Z,96566.03
2022-12-01T08:30:38.346Z,96559.72
2022-12-01T08:33:04.909Z,96558.75
2022-12-01T08:35:32.775Z,96561.75
2022-12-01T08:37:59.338Z,96570.84
2022-12-01T08:40:25.986Z,96569.19
2022-12-01T08:42:53.272Z,96564.78
2022-12-01T08:45:20.441Z,96574.84
2022-12-01T08:47:47.609Z,96568.25
2022-12-01T08:50:14.269Z,96578.44
2022-12-01T08:52:40.906Z,96569.88
2022-12-01T08:55:08.431Z,96568.75
2022-12-01T08:57:35.061Z,96565.03
2022-12-01T09:00:01.910Z,96567.75
2022-12-01T09:02:28.695Z,96573.06
2022-12-01T09:04:55.598Z,96576.81
2022-12-01T09:07:26.348Z,96580.44
2022-12-01T09:09:53.551Z,96574.75
2022-12-01T09:12:20.189Z,96570.16
2022-12-01T09:14:49.887Z,96567.00
2022-12-01T09:17:17.633Z,96578.16
2022-12-01T09:19:44.738Z,96577.47
2022-12-01T09:22:12.069Z,96576.78
2022-12-01T09:24:38.838Z,96573.00
2022-12-01T09:27:06.063Z,96574.31
2022-12-01T09:29:32.942Z,96565.25
2022-12-01T09:32:00.597Z,96572.25
2022-12-01T09:34:29.072Z,96561.47
2022-12-01T09:36:57.706Z,96563.72
2022-12-01T09:39:25.025Z,96571.84
2022-12-01T09:42:12.916Z,96563.19
2022-12-01T09:44:48.787Z,96566.38
2022-12-01T09:47:21.452Z,96566.38
2022-12-01T09:50:02.501Z,96562.69
2022-12-01T09:52:34.161Z,96562.22
2022-12-01T09:55:01.660Z,96555.41
2022-12-01T09:57:35.385Z,96557.34
2022-12-01T10:00:12.656Z,96553.16
2022-12-01T10:03:07.027Z,96555.19
2022-12-01T10:06:10.446Z,96549.63
2022-12-01T10:08:37.311Z,96549.81
2022-12-01T10:11:20.491Z,96546.78
2022-12-01T10:13:47.139Z,96546.25
2022-12-01T10:16:19.145Z,96547.22
2022-12-01T10:18:50.246Z,96538.19
2022-12-01T10:21:39.930Z,96538.94
2022-12-01T10:24:31.065Z,96529.50
2022-12-01T10:27:12.850Z,96530.97
2022-12-01T10:29:58.461Z,96532.56
2022-12-01T10:32:56.285Z,96533.19
2022-12-01T10:35:26.941Z,96533.84
2022-12-01T10:38:18.417Z,96526.44
2022-12-01T10:40:45.924Z,96525.16
2022-12-01T10:43:12.570Z,96520.72
2022-12-01T10:45:44.033Z,96521.50
2022-12-01T10:48:15.344Z,96523.84
2022-12-01T10:51:15.420Z,96516.66
2022-12-01T10:53:42.012Z,96511.28
2022-12-01T10:56:19.245Z,96508.78
2022-12-01T10:58:50.360Z,96508.91
2022-12-01T11:01:20.713Z,96510.25
2022-12-01T11:03:57.814Z,96503.38
2022-12-01T11:06:27.933Z,96513.38
2022-12-01T11:09:03.554Z,96511.91
2022-12-01T11:11:38.992Z,96505.66
2022-12-01T11:14:18.471Z,96504.22
2022-12-01T11:16:47.668Z,96505.91
2022-12-01T11:19:14.305Z,96509.84
2022-12-01T11:21:49.593Z,96504.53
2022-12-01T11:24:28.957Z,96514.53
2022-12-01T11:26:58.811Z,96501.97
2022-12-01T11:29:25.346Z,96504.16
2022-12-01T11:31:53.163Z,96505.00
2022-12-01T11:34:29.907Z,96500.28
2022-12-01T11:37:00.317Z,96495.47
2022-12-01T11:39:35.686Z,96491.25
2022-12-01T11:42:14.310Z,96490.00
2022-12-01T11:44:51.799Z,96487.50
2022-12-01T11:47:25.225Z,96486.31
2022-12-01T11:49:59.717Z,96482.34
2022-12-01T11:52:38.921Z,96489.38
2022-12-01T11:55:11.524Z,96488.22
2022-12-01T11:57:42.640Z,96488.38
2022-12-01T12:00:24.050Z,96486.09
2022-12-01T12:03:02.168Z,96492.19
2022-12-01T12:05:45.531Z,96486.38
2022-12-01T12:08:43.945Z,96480.38
2022-12-01T12:11:22.733Z,96485.34
2022-12-01T12:14:10.582Z,96487.66
2022-12-01T12:16:55.627Z,96487.72
2022-12-01T12:20:06.301Z,96480.47
2022-12-01T12:22:42.377Z,96473.50
2022-12-01T12:25:27.433Z,96473.34
2022-12-01T12:28:15.617Z,96474.59
2022-12-01T12:31:17.219Z,96475.00
2022-12-01T12:33:59.443Z,96468.03
2022-12-01T12:36:43.540Z,96466.88
2022-12-01T12:39:37.839Z,96455.66
2022-12-01T12:42:22.267Z,96467.84
2022-12-01T12:45:26.071Z,96457.25
2022-12-01T12:48:04.409Z,96459.47
2022-12-01T12:50:49.078Z,96456.72
2022-12-01T12:53:22.206Z,96461.22
2022-12-01T12:55:51.157Z,96455.94
2022-12-01T12:58:27.292Z,96460.56
2022-12-01T13:01:13.811Z,96453.25
2022-12-01T13:03:55.530Z,96454.94
2022-12-01T13:06:46.074Z,96452.25
2022-12-01T13:09:26.289Z,96446.41
2022-12-01T13:12:04.794Z,96451.75
2022-12-01T13:15:00.854Z,96450.41
2022-12-01T13:17:36.598Z,96445.06
2022-12-01T13:20:07.590Z,96445.91
2022-12-01T13:22:35.898Z,96444.53
2022-12-01T13:25:04.268Z,96443.75
2022-12-01T13:27:41.025Z,96435.44
2022-12-01T13:30:18.266Z,96444.66
2022-12-01T13:32:46.097Z,96444.50
2022-12-01T13:35:32.310Z,96453.16
2022-12-01T13:38:20.310Z,96456.66
2022-12-01T13:40:47.689Z,96450.97
2022-12-01T13:43:20.820Z,96443.50
2022-12-01T13:45:48.523Z,96445.41
2022-12-01T13:48:51.764Z,96441.25
2022-12-01T13:51:18.549Z,96443.91
2022-12-01T13:53:57.404Z,96446.06
2022-12-01T13:56:39.356Z,96448.06
2022-12-01T13:59:27.305Z,96442.25
2022-12-01T14:02:13.395Z,96436.41
2022-12-01T14:04:40.015Z,96446.06
2022-12-01T14:07:21.698Z,96448.88
2022-12-01T14:09:51.890Z,96444.06
2022-12-01T14:12:26.220Z,96454.44
2022-12-01T14:14:58.256Z,96450.41
2022-12-01T14:17:38.120Z,96449.72
2022-12-01T14:20:13.109Z,96451.06
2022-12-01T14:22:48.635Z,96450.50
2022-12-01T14:25:21.297Z,96448.88
2022-12-01T14:27:50.781Z,96451.22
2022-12-01T14:30:48.149Z,96458.75
2022-12-01T14:33:39.748Z,96460.78
2022-12-01T14:36:25.741Z,96455.66
2022-12-01T14:38:58.269Z,96452.91
2022-12-01T14:41:31.360Z,96458.84
2022-12-01T14:44:05.970Z,96457.69
2022-12-01T14:46:43.126Z,96454.34
2022-12-01T14:49:15.484Z,96452.25
2022-12-01T14:51:46.122Z,96456.56
2022-12-01T14:54:20.759Z,96457.38
2022-12-01T14:56:51.303Z,96461.81
2022-12-01T14:59:24.269Z,96460.06
2022-12-01T15:01:56.048Z,96456.78
2022-12-01T15:04:22.693Z,96452.78
2022-12-01T15:06:56.086Z,96459.16
2022-12-01T15:09:39.029Z,96455.22
2022-12-01T15:12:09.281Z,96458.13
2022-12-01T15:14:38.883Z,96464.59
2022-12-01T15:17:08.876Z,96458.16
2022-12-01T15:19:37.710Z,96460.78
2022-12-01T15:22:15.631Z,96462.41
2022-12-01T15:24:43.505Z,96464.47
2022-12-01T15:27:30.331Z,96466.63
2022-12-01T15:30:03.308Z,96468.13
2022-12-01T15:32:32.080Z,96471.38
2022-12-01T15:35:04.714Z,96474.59
2022-12-01T15:37:42.590Z,96472.47
2022-12-01T15:43:04.495Z,96479.34
2022-12-01T15:45:42.868Z,96483.63
2022-12-01T15:48:17.906Z,96488.03
2022-12-01T15:50:58.821Z,96479.25
2022-12-01T15:53:32.801Z,96479.31
2022-12-01T15:56:03.206Z,96478.75
2022-12-01T15:58:33.710Z,96484.56
2022-12-01T16:01:01.860Z,96478.75
2022-12-01T16:03:29.189Z,96482.31
2022-12-01T16:05:57.048Z,96481.56
2022-12-01T16:08:26.709Z,96482.19
2022-12-01T16:11:18.558Z,96476.34
2022-12-01T16:13:48.916Z,96481.97
2022-12-01T16:16:33.227Z,96485.47
2022-12-01T16:19:02.894Z,96476.25
2022-12-01T16:21:42.281Z,96479.44
2022-12-01T16:24:30.535Z,96479.75
2022-12-01T16:27:16.510Z,96486.34
2022-12-01T16:29:50.004Z,96491.81
2022-12-01T16:32:40.623Z,96490.84
2022-12-01T16:35:26.575Z,96487.78
2022-12-01T16:37:54.478Z,96475.53
2022-12-01T16:40:21.178Z,96485.28
2022-12-01T16:42:49.959Z,96492.94
2022-12-01T16:45:19.006Z,96486.34
2022-12-01T16:47:48.030Z,96489.31
2022-12-01T16:50:16.200Z,96491.72
2022-12-01T16:52:44.650Z,96484.59
2022-12-01T16:55:30.473Z,96488.88
2022-12-01T16:57:57.166Z,96488.94
2022-12-01T17:00:24.152Z,96487.41
2022-12-01T17:02:51.081Z,96491.97
2022-12-01T17:05:17.850Z,96492.72
2022-12-01T17:07:44.532Z,96490.34
2022-12-01T17:10:11.488Z,96494.00
2022-12-01T17:12:38.309Z,96491.31
2022-12-01T17:15:06.654Z,96492.22
2022-12-01T17:17:33.355Z,96491.00
2022-12-01T17:19:59.952Z,96487.78
2022-12-01T17:22:26.530Z,96488.16
2022-12-01T17:24:54.891Z,96487.34
2022-12-01T17:27:22.833Z,96489.91
2022-12-01T17:29:49.409Z,96490.38
2022-12-01T17:32:15.994Z,96487.34
2022-12-01T17:34:42.578Z,96493.41
2022-12-01T17:37:09.175Z,96486.59
2022-12-01T17:39:35.950Z,96485.38
2022-12-01T17:42:02.583Z,96491.78
2022-12-01T17:44:29.199Z,96487.44
2022-12-01T17:46:55.850Z,96495.03
2022-12-01T17:49:22.546Z,96489.59
2022-12-01T17:51:49.180Z,96487.81
2022-12-01T17:54:15.889Z,96500.00
2022-12-01T17:56:42.824Z,96498.66
2022-12-01T17:59:09.438Z,96501.25
2022-12-01T18:01:36.190Z,96497.59
2022-12-01T18:04:02.906Z,96490.59
2022-12-01T18:06:29.481Z,96495.38
2022-12-01T18:08:57.521Z,96506.63
2022-12-01T18:11:24.293Z,96502.78
2022-12-01T18:13:51.864Z,96498.94
2022-12-01T18:16:21.279Z,96492.09
2022-12-01T18:18:48.430Z,96488.94
2022-12-01T18:21:17.893Z,96482.44
2022-12-01T18:23:56.806Z,96493.59
2022-12-01T18:26:24.422Z,96495.53
2022-12-01T18:29:03.198Z,96494.88
2022-12-01T18:31:30.446Z,96496.97
2022-12-01T18:34:04.889Z,96494.56
2022-12-01T18:36:35.021Z,96499.88
2022-12-01T18:39:02.604Z,96501.03
2022-12-01T18:41:29.562Z,96503.44
2022-12-01T18:43:56.257Z,96500.34
2022-12-01T18:46:23.075Z,96501.81
2022-12-01T18:48:53.235Z,96507.28
2022-12-01T18:51:21.053Z,96500.28
2022-12-01T18:53:47.912Z,96505.59
2022-12-01T18:56:15.628Z,96499.09
2022-12-01T18:58:42.429Z,96487.13
2022-12-01T19:01:27.090Z,96495.81
2022-12-01T19:03:57.955Z,96496.00
2022-12-01T19:06:25.595Z,96501.56
2022-12-01T19:08:53.529Z,96489.47
2022-12-01T19:11:20.756Z,96499.38
2022-12-01T19:13:47.882Z,96491.63
2022-12-01T19:16:19.508Z,96483.63
2022-12-01T19:18:46.250Z,96485.38
2022-12-01T19:21:17.491Z,96482.78
2022-12-01T19:23:45.216Z,96481.16
2022-12-01T19:26:14.923Z,96486.16
2022-12-01T19:28:42.343Z,96481.88
2022-12-01T19:31:11.530Z,96492.72
2022-12-01T19:33:38.469Z,96496.09
2022-12-01T19:36:09.980Z,96491.75
2022-12-01T19:38:36.613Z,96492.66
2022-12-01T19:41:03.773Z,96498.03
2022-12-01T19:43:30.366Z,96498.84
2022-12-01T19:45:57.063Z,96501.06
2022-12-01T19:48:23.711Z,96501.09
2022-12-01T19:50:50.288Z,96498.16
2022-12-01T19:53:16.887Z,96497.09
2022-12-01T19:55:43.513Z,96494.63
2022-12-01T19:58:10.193Z,96484.56
2022-12-01T20:00:36.801Z,96490.97
2022-12-01T20:03:03.937Z,96486.19
2022-12-01T20:05:32.512Z,96484.69
2022-12-01T20:07:59.248Z,96486.22
2022-12-01T20:10:25.927Z,96485.47
2022-12-01T20:12:52.777Z,96492.06
2022-12-01T20:15:19.521Z,96489.00
2022-12-01T20:17:46.107Z,96485.88
2022-12-01T20:20:13.208Z,96479.78
2022-12-01T20:22:39.833Z,96481.97
2022-12-01T20:25:06.825Z,96486.22
2022-12-01T20:27:33.537Z,96486.47
2022-12-01T20:30:00.138Z,96483.47
2022-12-01T20:32:27.376Z,96484.56
2022-12-01T20:34:53.992Z,96491.00
2022-12-01T20:37:20.614Z,96490.38
2022-12-01T20:39:47.499Z,96495.63
2022-12-01T20:42:14.065Z,96489.63
2022-12-01T20:44:40.821Z,96488.59
2022-12-01T20:47:07.546Z,96494.19
2022-12-01T20:49:34.390Z,96490.06
2022-12-01T20:52:00.984Z,96489.44
2022-12-01T20:54:29.139Z,96496.66
2022-12-01T20:56:57.188Z,96492.19
2022-12-01T20:59:23.859Z,96488.53
2022-12-01T21:01:50.449Z,96494.19
2022-12-01T21:04:17.684Z,96492.50
2022-12-01T21:06:44.408Z,96488.94
2022-12-01T21:09:12.441Z,96488.47
2022-12-01T21:12:17.601Z,96492.56
2022-12-01T21:15:25.473Z,96490.03
2022-12-01T21:18:09.357Z,96493.28
2022-12-01T21:20:40.660Z,96495.38
2022-12-01T21:23:13.047Z,96490.22
2022-12-01T21:25:41.415Z,96497.41
2022-12-01T21:28:20.169Z,96491.19
2022-12-01T21:30:48.224Z,96496.00
2022-12-01T21:33:31.911Z,96487.13
2022-12-01T21:36:00.870Z,96497.47
2022-12-01T21:38:28.205Z,96489.66
2022-12-01T21:40:54.891Z,96489.44
2022-12-01T21:43:24.734Z,96497.53
2022-12-01T21:46:02.084Z,96493.13
2022-12-01T21:48:35.132Z,96496.50
2022-12-01T21:51:07.181Z,96491.97
2022-12-01T21:53:37.684Z,96494.25
2022-12-01T21:56:04.406Z,96490.28
2022-12-01T21:58:35.386Z,96493.13
2022-12-01T22:01:03.206Z,96493.78
2022-12-01T22:03:45.710Z,96494.25
2022-12-01T22:06:30.763Z,96496.50
2022-12-01T22:09:10.474Z,96488.03
2022-12-01T22:11:37.269Z,96489.56
2022-12-01T22:14:18.850Z,96490.63
2022-12-01T22:16:56.349Z,96489.44
2022-12-01T22:19:34.470Z,96492.81
2022-12-01T22:22:01.039Z,96484.44
2022-12-01T22:24:33.676Z,96485.41
2022-12-01T22:27:11.831Z,96485.63
2022-12-01T22:29:49.078Z,96489.72
2022-12-01T22:32:15.625Z,96482.38
2022-12-01T22:34:49.519Z,96475.31
2022-12-01T22:37:20.830Z,96482.19
2022-12-01T22:39:50.106Z,96478.63
2022-12-01T22:42:27.964Z,96478.94
2022-12-01T22:44:54.528Z,96478.44
2022-12-01T22:47:21.113Z,96471.19
2022-12-01T22:49:47.675Z,96473.28
2022-12-01T22:52:28.508Z,96482.28
2022-12-01T22:54:55.256Z,96471.47
2022-12-01T22:57:35.137Z,96468.25
2022-12-01T23:00:15.015Z,96474.06
2022-12-01T23:02:41.748Z,96470.09
2022-12-01T23:05:29.091Z,96464.19
2022-12-01T23:07:57.145Z,96469.44
2022-12-01T23:10:28.518Z,96469.94
2022-12-01T23:13:00.365Z,96470.25
2022-12-01T23:15:41.041Z,96470.00
2022-12-01T23:18:24.107Z,96464.78
2022-12-01T23:21:01.339Z,96465.75
2022-12-01T23:23:35.701Z,96457.56
2022-12-01T23:26:04.645Z,96456.00
2022-12-01T23:28:31.270Z,96460.44
2022-12-01T23:30:59.681Z,96461.38
2022-12-01T23:33:29.242Z,96455.91
2022-12-01T23:36:15.344Z,96455.19
2022-12-01T23:38:51.773Z,96454.28
2022-12-01T23:41:41.207Z,96451.31
2022-12-01T23:44:29.361Z,96446.50
2022-12-01T23:46:58.692Z,96444.88
2022-12-01T23:49:29.860Z,96442.81
2022-12-01T23:52:00.354Z,96438.84
2022-12-01T23:54:31.209Z,96434.63
2022-12-01T23:57:01.600Z,96429.91
2022-12-01T23:59:30.089Z,96430.19
